KBQK/BQK METAR and TAF weather

Enter ICAO airport designator
Station Type Date Time Source
KBQK METAR 2019/06/17 13:35 UTC NOAA

KBQK 171335Z AUTO 22008KT 10SM CLR 28/21 A3010 RMK AO2 T02780214


Station Type Date Time Source
KBQK Decoded METAR 2019/06/17 13:35 UTC NOAA

Brunswick / Glynco, GA, United States (KBQK) 31-15N 081-28W
Jun 17, 2019 - 09:35 AM EDT / 2019.06.17 1335 UTC
Wind: from the SW (220 degrees) at 9 MPH (8 KT):0
Visibility: 10 mile(s):0
Sky conditions: clear
Temperature: 82.0 F (27.8 C)
Dew Point: 70.5 F (21.4 C)
Relative Humidity: 68%
Pressure (altimeter): 30.1 in. Hg (1019 hPa)
ob: KBQK 171335Z AUTO 22008KT 10SM CLR 28/21 A3010 RMK AO2 T02780214
cycle: 13

Station Type Date Time Source
KBQK TAF UTC NOAA

Error!

Example: see airport list